createdAt,value
2018-04-02T00:01:40.640Z,26.70
2018-04-02T00:04:11.111Z,26.70
2018-04-02T00:06:41.705Z,26.70
2018-04-02T00:09:12.181Z,26.70
2018-04-02T00:11:43.655Z,26.70
2018-04-02T00:14:14.889Z,26.80
2018-04-02T00:16:46.106Z,26.80
2018-04-02T00:19:16.548Z,26.80
2018-04-02T00:21:47.030Z,26.80
2018-04-02T00:24:17.452Z,26.90
2018-04-02T00:26:47.890Z,27.00
2018-04-02T00:29:18.356Z,27.10
2018-04-02T00:31:48.807Z,27.20
2018-04-02T00:34:19.347Z,27.30
2018-04-02T00:36:49.806Z,27.40
2018-04-02T00:39:20.259Z,27.50
2018-04-02T00:41:50.818Z,27.60
2018-04-02T00:44:22.990Z,27.70
2018-04-02T00:46:53.896Z,27.70
2018-04-02T00:49:24.387Z,27.80
2018-04-02T00:51:54.855Z,27.80
2018-04-02T00:54:26.018Z,27.90
2018-04-02T00:56:57.273Z,28.20
2018-04-02T00:59:27.733Z,28.20
2018-04-02T01:01:58.186Z,28.20
2018-04-02T01:04:28.656Z,28.30
2018-04-02T01:06:59.491Z,28.40
2018-04-02T01:09:30.760Z,28.70
2018-04-02T01:12:02.620Z,28.80
2018-04-02T01:14:34.077Z,28.90
2018-04-02T01:17:04.551Z,29.00
2018-04-02T01:19:36.202Z,29.00
2018-04-02T01:22:07.406Z,29.10
2018-04-02T01:24:37.862Z,29.10
2018-04-02T01:27:08.309Z,29.20
2018-04-02T01:29:39.530Z,29.30
2018-04-02T01:32:09.970Z,29.30
2018-04-02T01:34:40.794Z,29.40
2018-04-02T01:37:11.263Z,29.40
2018-04-02T01:39:41.762Z,29.50
2018-04-02T01:42:12.238Z,29.60
2018-04-02T01:44:42.674Z,29.70
2018-04-02T01:47:13.167Z,29.80
2018-04-02T01:49:44.423Z,29.90
2018-04-02T01:52:14.940Z,29.80
2018-04-02T01:54:46.183Z,29.90
2018-04-02T01:57:17.438Z,30.00
2018-04-02T01:59:48.297Z,30.00
2018-04-02T02:02:19.724Z,30.20
2018-04-02T02:04:50.168Z,30.20
2018-04-02T02:07:20.646Z,30.30
2018-04-02T02:09:51.123Z,30.50
2018-04-02T02:12:21.595Z,30.50
2018-04-02T02:14:52.107Z,30.70
2018-04-02T02:17:22.559Z,30.80
2018-04-02T02:19:53.065Z,30.80
2018-04-02T02:22:23.513Z,30.90
2018-04-02T02:24:54.070Z,31.00
2018-04-02T02:27:25.280Z,31.20
2018-04-02T02:29:55.745Z,31.20
2018-04-02T02:32:26.660Z,31.30
2018-04-02T02:34:58.171Z,31.40
2018-04-02T02:37:29.284Z,31.40
2018-04-02T02:39:59.745Z,31.50
2018-04-02T02:42:30.307Z,31.70
2018-04-02T02:45:00.914Z,31.80
2018-04-02T02:47:31.571Z,31.80
2018-04-02T02:50:02.031Z,31.90
2018-04-02T02:52:32.542Z,31.90
2018-04-02T02:55:04.694Z,31.90
2018-04-02T02:57:35.152Z,31.90
2018-04-02T03:00:05.686Z,31.90
2018-04-02T03:02:36.174Z,31.90
2018-04-02T03:05:06.691Z,31.90
2018-04-02T03:07:37.160Z,31.90
2018-04-02T03:10:07.634Z,32.00
2018-04-02T03:12:38.074Z,31.90
2018-04-02T03:15:08.548Z,31.90
2018-04-02T03:17:39.014Z,31.90
2018-04-02T03:20:09.462Z,32.10
2018-04-02T03:22:39.937Z,32.20
2018-04-02T03:25:10.434Z,32.50
2018-04-02T03:27:41.619Z,32.80
2018-04-02T03:30:12.091Z,32.80
2018-04-02T03:32:42.854Z,32.70
2018-04-02T03:35:14.426Z,32.70
2018-04-02T03:37:45.701Z,32.70
2018-04-02T03:40:16.244Z,32.70
2018-04-02T03:42:46.711Z,32.40
2018-04-02T03:45:18.848Z,31.80
2018-04-02T03:47:49.310Z,31.80
2018-04-02T03:50:19.854Z,31.60
2018-04-02T03:52:50.307Z,31.50
2018-04-02T03:55:20.793Z,31.40
2018-04-02T03:57:51.251Z,31.60
2018-04-02T04:00:21.706Z,31.90
2018-04-02T04:02:52.163Z,32.20
2018-04-02T04:05:23.385Z,32.10
2018-04-02T04:07:54.455Z,32.10
2018-04-02T04:10:25.730Z,31.70
2018-04-02T04:12:56.162Z,31.70
2018-04-02T04:15:26.656Z,31.50
2018-04-02T04:17:57.914Z,31.30
2018-04-02T04:20:29.563Z,31.30
2018-04-02T04:23:00.035Z,31.30
2018-04-02T04:25:31.450Z,31.30
2018-04-02T04:28:01.942Z,31.20
2018-04-02T04:30:33.198Z,31.00
2018-04-02T04:33:04.426Z,30.90
2018-04-02T04:35:34.931Z,30.80
2018-04-02T04:38:05.382Z,30.60
2018-04-02T04:40:35.856Z,30.50
2018-04-02T04:43:06.344Z,30.40
2018-04-02T04:45:37.614Z,30.20
2018-04-02T04:48:08.082Z,30.20
2018-04-02T04:50:38.807Z,30.20
2018-04-02T04:53:09.410Z,30.20
2018-04-02T04:55:40.020Z,30.30
2018-04-02T04:58:11.277Z,30.50
2018-04-02T05:00:42.531Z,30.50
2018-04-02T05:03:12.995Z,30.50
2018-04-02T05:05:43.475Z,30.60
2018-04-02T05:08:13.942Z,30.70
2018-04-02T05:10:45.354Z,30.70
2018-04-02T05:13:16.753Z,30.80
2018-04-02T05:15:47.202Z,30.80
2018-04-02T05:18:17.655Z,30.80
2018-04-02T05:20:48.883Z,30.80
2018-04-02T05:23:20.135Z,30.90
2018-04-02T05:25:51.403Z,31.00
2018-04-02T05:28:21.983Z,31.00
2018-04-02T05:30:52.436Z,31.30
2018-04-02T05:33:23.672Z,32.20
2018-04-02T05:35:54.440Z,32.10
2018-04-02T05:38:25.191Z,32.60
2018-04-02T05:40:55.709Z,32.90
2018-04-02T05:43:26.203Z,33.00
2018-04-02T05:45:58.423Z,32.80
2018-04-02T05:48:29.759Z,32.60
2018-04-02T05:51:00.309Z,32.60
2018-04-02T05:53:30.758Z,32.50
2018-04-02T05:56:01.570Z,32.50
2018-04-02T05:58:32.015Z,32.60
2018-04-02T06:01:02.473Z,32.70
2018-04-02T06:03:33.341Z,32.80
2018-04-02T06:06:03.780Z,32.90
2018-04-02T06:08:34.272Z,33.00
2018-04-02T06:11:05.491Z,33.10
2018-04-02T06:13:35.950Z,33.10
2018-04-02T06:16:07.162Z,33.30
2018-04-02T06:18:38.436Z,33.70
2018-04-02T06:21:09.690Z,33.90
2018-04-02T06:23:41.110Z,33.80
2018-04-02T06:26:12.374Z,33.90
2018-04-02T06:28:43.656Z,33.90
2018-04-02T06:31:14.126Z,33.90
2018-04-02T06:33:44.590Z,34.10
2018-04-02T06:36:15.410Z,34.10
2018-04-02T06:38:46.774Z,33.80
2018-04-02T06:41:17.226Z,33.80
2018-04-02T06:43:47.684Z,33.60
2018-04-02T06:46:18.184Z,33.60
2018-04-02T06:48:48.659Z,33.70
2018-04-02T06:51:19.869Z,33.80
2018-04-02T06:53:50.354Z,33.80
2018-04-02T06:56:20.822Z,33.80
2018-04-02T06:58:51.278Z,33.70
2018-04-02T07:01:22.574Z,33.80
2018-04-02T07:06:28.802Z,33.90
2018-04-02T07:08:59.258Z,33.90
2018-04-02T07:11:29.761Z,33.70
2018-04-02T07:14:00.235Z,33.40
2018-04-02T07:16:30.683Z,33.20
2018-04-02T07:19:01.142Z,33.10
2018-04-02T07:21:31.599Z,33.10
2018-04-02T07:24:02.080Z,33.00
2018-04-02T07:26:32.544Z,32.70
2018-04-02T07:29:03.790Z,32.50
2018-04-02T07:31:35.233Z,32.50
2018-04-02T07:34:06.490Z,32.50
2018-04-02T07:36:37.506Z,32.60
2018-04-02T07:39:09.826Z,32.50
2018-04-02T07:41:40.306Z,32.40
2018-04-02T07:44:10.758Z,32.20
2018-04-02T07:46:41.978Z,31.90
2018-04-02T07:49:12.677Z,31.90
2018-04-02T07:51:43.195Z,31.80
2018-04-02T07:54:13.749Z,31.70
2018-04-02T07:56:44.339Z,31.70
2018-04-02T07:59:14.826Z,31.60
2018-04-02T08:01:45.341Z,31.60
2018-04-02T08:04:16.024Z,31.60
2018-04-02T08:06:46.582Z,31.60
2018-04-02T08:09:17.105Z,31.60
2018-04-02T08:11:47.767Z,31.60
2018-04-02T08:14:18.843Z,31.60
2018-04-02T08:16:51.042Z,31.60
2018-04-02T08:19:21.587Z,31.70
2018-04-02T08:21:52.050Z,31.70
2018-04-02T08:24:23.642Z,32.20
2018-04-02T08:26:54.356Z,32.20
2018-04-02T08:29:25.148Z,32.40
2018-04-02T08:31:55.676Z,32.50
2018-04-02T08:34:26.193Z,32.50
2018-04-02T08:36:56.787Z,32.50
2018-04-02T08:39:28.453Z,32.40
2018-04-02T08:41:59.029Z,32.30
2018-04-02T08:44:29.499Z,32.20
2018-04-02T08:47:00.105Z,32.20
2018-04-02T08:49:32.027Z,32.10
2018-04-02T08:52:02.588Z,32.10
2018-04-02T08:54:34.803Z,31.90
2018-04-02T08:57:05.508Z,31.90
2018-04-02T08:59:36.499Z,31.90
2018-04-02T09:02:06.991Z,31.90
2018-04-02T09:04:37.528Z,31.90
2018-04-02T09:09:42.905Z,32.20
2018-04-02T09:12:13.486Z,32.30
2018-04-02T09:14:44.857Z,32.30
2018-04-02T09:17:16.346Z,32.20
2018-04-02T09:19:46.907Z,32.30
2018-04-02T09:22:17.506Z,32.40
2018-04-02T09:24:48.537Z,32.50
2018-04-02T09:27:19.570Z,32.60
2018-04-02T09:29:50.074Z,32.80
2018-04-02T09:32:20.893Z,32.80
2018-04-02T09:34:52.462Z,32.80
2018-04-02T09:37:23.788Z,32.90
2018-04-02T09:39:54.264Z,32.90
2018-04-02T09:42:24.803Z,33.00
2018-04-02T09:44:55.304Z,33.00
2018-04-02T09:47:25.798Z,33.00
2018-04-02T09:49:56.490Z,33.00
2018-04-02T09:52:27.182Z,33.00
2018-04-02T09:54:59.426Z,33.00
2018-04-02T09:57:29.997Z,33.00
2018-04-02T10:00:00.476Z,33.00
2018-04-02T10:02:35.902Z,33.00
2018-04-02T10:05:08.370Z,33.00
2018-04-02T10:07:40.648Z,32.90
2018-04-02T10:10:11.229Z,32.90
2018-04-02T10:12:42.583Z,32.90
2018-04-02T10:15:13.159Z,32.80
2018-04-02T10:17:43.992Z,32.80
2018-04-02T10:20:14.624Z,32.80
2018-04-02T10:22:45.162Z,32.70
2018-04-02T10:25:15.725Z,32.60
2018-04-02T10:27:46.955Z,32.40
2018-04-02T10:30:17.755Z,32.50
2018-04-02T10:32:48.488Z,32.40
2018-04-02T10:35:18.974Z,32.40
2018-04-02T10:37:50.181Z,32.30
2018-04-02T10:40:21.869Z,32.30
2018-04-02T10:42:54.023Z,32.20
2018-04-02T10:45:24.791Z,32.20
2018-04-02T10:47:55.342Z,32.20
2018-04-02T10:50:25.807Z,32.30
2018-04-02T10:52:56.309Z,32.20
2018-04-02T10:55:26.766Z,32.10
2018-04-02T10:57:57.227Z,32.10
2018-04-02T11:00:27.715Z,32.00
2018-04-02T11:02:58.211Z,31.90
2018-04-02T11:05:29.602Z,31.80
2018-04-02T11:08:00.083Z,31.80
2018-04-02T11:10:30.554Z,31.70
2018-04-02T11:13:00.986Z,31.60
2018-04-02T11:15:32.442Z,31.50
2018-04-02T11:18:03.673Z,31.50
2018-04-02T11:20:34.686Z,31.40
2018-04-02T11:23:05.147Z,31.40
2018-04-02T11:25:35.614Z,31.30
2018-04-02T11:28:06.095Z,31.30
2018-04-02T11:30:36.553Z,31.20
2018-04-02T11:33:07.976Z,31.10
2018-04-02T11:35:39.136Z,31.00
2018-04-02T11:38:10.443Z,30.80
2018-04-02T11:40:41.050Z,30.80
2018-04-02T11:43:11.523Z,30.70
2018-04-02T11:45:42.002Z,30.60
2018-04-02T11:48:12.755Z,30.50
2018-04-02T11:50:43.316Z,30.50
2018-04-02T11:53:13.791Z,30.40
2018-04-02T11:55:44.267Z,30.40
2018-04-02T11:58:14.734Z,30.30
2018-04-02T12:00:45.244Z,30.30
2018-04-02T12:03:16.481Z,30.20
2018-04-02T12:05:47.714Z,30.20
2018-04-02T12:08:18.165Z,30.20
2018-04-02T12:10:49.452Z,30.10
2018-04-02T12:13:20.003Z,30.00
2018-04-02T12:15:51.406Z,30.10
2018-04-02T12:18:21.879Z,30.10
2018-04-02T12:20:52.398Z,30.00
2018-04-02T12:23:22.890Z,30.00
2018-04-02T12:25:53.449Z,30.00
2018-04-02T12:28:23.928Z,30.00
2018-04-02T12:30:55.142Z,29.90
2018-04-02T12:33:25.609Z,29.90
2018-04-02T12:35:56.649Z,29.90
2018-04-02T12:38:29.042Z,29.80
2018-04-02T12:41:00.122Z,29.80
2018-04-02T12:43:30.611Z,29.80
2018-04-02T12:46:01.811Z,29.80
2018-04-02T12:48:32.356Z,29.80
2018-04-02T12:51:04.614Z,29.80
2018-04-02T12:53:35.895Z,29.70
2018-04-02T12:56:06.420Z,29.70
2018-04-02T12:58:37.483Z,29.70
2018-04-02T13:01:07.951Z,29.70
2018-04-02T13:03:38.420Z,29.60
2018-04-02T13:06:09.090Z,29.60
2018-04-02T13:08:39.572Z,29.50
2018-04-02T13:11:10.068Z,29.50
2018-04-02T13:13:41.766Z,29.40
2018-04-02T13:16:12.246Z,29.40
2018-04-02T13:18:42.830Z,29.40
2018-04-02T13:21:13.410Z,29.40
2018-04-02T13:23:43.875Z,29.50
2018-04-02T13:26:14.347Z,29.40
2018-04-02T13:28:44.796Z,29.50
2018-04-02T13:31:15.247Z,29.50
2018-04-02T13:33:46.467Z,29.40
2018-04-02T13:36:16.934Z,29.40
2018-04-02T13:38:47.386Z,29.40
2018-04-02T13:41:18.764Z,29.30
2018-04-02T13:43:49.533Z,29.30
2018-04-02T13:46:20.024Z,29.30
2018-04-02T13:48:50.509Z,29.30
2018-04-02T13:51:20.971Z,29.30
2018-04-02T13:53:51.428Z,29.30
2018-04-02T13:56:23.686Z,29.30
2018-04-02T13:58:54.799Z,29.30
2018-04-02T14:01:25.268Z,29.20
2018-04-02T14:03:56.478Z,29.20
2018-04-02T14:06:26.959Z,29.10
2018-04-02T14:08:57.429Z,29.10
2018-04-02T14:11:27.914Z,29.20
2018-04-02T14:13:58.406Z,29.20
2018-04-02T14:16:28.845Z,29.20
2018-04-02T14:19:00.124Z,29.20
2018-04-02T14:21:30.590Z,29.10
2018-04-02T14:24:01.030Z,29.10
2018-04-02T14:26:31.797Z,29.10
2018-04-02T14:29:03.258Z,29.10
2018-04-02T14:31:33.785Z,29.10
2018-04-02T14:34:04.319Z,29.10
2018-04-02T14:36:34.794Z,29.10
2018-04-02T14:39:06.077Z,29.10
2018-04-02T14:41:37.307Z,29.00
2018-04-02T14:44:08.534Z,29.00
2018-04-02T14:46:38.985Z,29.00
2018-04-02T14:49:10.191Z,29.00
2018-04-02T14:51:40.642Z,29.00
2018-04-02T14:54:11.104Z,29.00
2018-04-02T14:56:41.584Z,29.00
2018-04-02T14:59:12.064Z,29.00
2018-04-02T15:01:43.448Z,29.00
2018-04-02T15:04:13.926Z,29.00
2018-04-02T15:06:46.087Z,28.90
2018-04-02T15:09:17.319Z,28.90
2018-04-02T15:11:48.583Z,28.90
2018-04-02T15:14:19.806Z,28.90
2018-04-02T15:16:50.262Z,28.90
2018-04-02T15:19:20.794Z,28.90
2018-04-02T15:21:51.251Z,28.90
2018-04-02T15:24:21.720Z,28.90
2018-04-02T15:26:52.182Z,28.90
2018-04-02T15:29:22.708Z,28.90
2018-04-02T15:31:53.200Z,28.80
2018-04-02T15:34:23.662Z,28.70
2018-04-02T15:36:54.185Z,28.70
2018-04-02T15:39:25.496Z,28.70
2018-04-02T15:41:57.060Z,28.70
2018-04-02T15:44:27.536Z,28.70
2018-04-02T15:46:58.047Z,28.70
2018-04-02T15:49:28.551Z,28.70
2018-04-02T15:52:00.733Z,28.70
2018-04-02T15:54:31.996Z,28.60
2018-04-02T15:57:02.456Z,28.60
2018-04-02T15:59:32.946Z,28.60
2018-04-02T16:02:03.410Z,28.60
2018-04-02T16:04:34.686Z,28.60
2018-04-02T16:07:05.158Z,28.60
2018-04-02T16:09:35.606Z,28.70
2018-04-02T16:12:06.088Z,28.70
2018-04-02T16:14:37.319Z,28.80
2018-04-02T16:17:07.828Z,28.80
2018-04-02T16:19:38.359Z,28.90
2018-04-02T16:22:08.838Z,28.90
2018-04-02T16:24:39.316Z,28.90
2018-04-02T16:27:10.657Z,28.90
2018-04-02T16:29:41.130Z,28.80
2018-04-02T16:32:11.583Z,28.80
2018-04-02T16:34:42.042Z,28.80
2018-04-02T16:37:12.486Z,28.80
2018-04-02T19:57:36.293Z,26.40
2018-04-02T20:00:06.490Z,26.40
2018-04-02T20:02:37.055Z,26.30
2018-04-02T20:05:06.900Z,26.30
2018-04-02T20:07:36.720Z,26.30
2018-04-02T20:10:06.693Z,26.20
2018-04-02T20:12:36.502Z,26.30
2018-04-02T20:15:06.338Z,26.30
2018-04-02T20:17:36.128Z,26.30
2018-04-02T20:20:06.217Z,26.30
2018-04-02T20:22:36.856Z,26.30
2018-04-02T20:25:07.420Z,26.30
2018-04-02T20:27:37.233Z,26.30
2018-04-02T20:30:07.025Z,26.40
2018-04-02T20:32:36.788Z,26.40
2018-04-02T20:35:06.558Z,26.40
2018-04-02T20:37:36.343Z,26.40
2018-04-02T20:42:40.865Z,26.40
2018-04-02T20:45:10.612Z,26.40
2018-04-02T20:47:40.495Z,26.50
2018-04-02T20:50:11.070Z,26.40
2018-04-02T20:52:40.895Z,26.40
2018-04-02T20:55:11.369Z,26.40
2018-04-02T20:57:41.941Z,26.40
2018-04-02T21:00:11.753Z,26.40
2018-04-02T21:02:41.575Z,26.40
2018-04-02T21:05:11.691Z,26.30
2018-04-02T21:07:41.814Z,26.30
2018-04-02T21:10:11.605Z,26.30
2018-04-02T21:12:41.389Z,26.20
2018-04-02T21:15:11.938Z,26.10
2018-04-02T21:17:42.371Z,26.10
2018-04-02T21:20:12.162Z,26.20
2018-04-02T21:22:42.796Z,26.10
2018-04-02T21:25:12.571Z,26.10
2018-04-02T21:27:42.422Z,26.00
2018-04-02T21:30:12.242Z,25.90
2018-04-02T21:32:42.036Z,25.90
2018-04-02T21:35:12.593Z,25.90
2018-04-02T21:37:42.529Z,25.90
2018-04-02T21:40:12.312Z,25.90
2018-04-02T21:42:42.093Z,25.90
2018-04-02T21:45:12.652Z,25.90
2018-04-02T21:47:42.492Z,25.90
2018-04-02T21:50:12.320Z,25.90
2018-04-02T21:52:42.174Z,26.00
2018-04-02T21:55:12.723Z,26.10
2018-04-02T21:57:42.706Z,26.00
2018-04-02T22:00:13.626Z,26.10
2018-04-02T22:02:43.406Z,26.10
2018-04-02T22:05:13.566Z,26.10
2018-04-02T22:07:43.482Z,26.10
2018-04-02T22:10:13.333Z,26.00
2018-04-02T22:12:43.914Z,25.90
2018-04-02T22:15:13.704Z,25.90
2018-04-02T22:17:46.026Z,25.80
2018-04-02T22:20:16.599Z,25.80
2018-04-02T22:22:46.509Z,25.80
2018-04-02T22:25:16.258Z,25.80
2018-04-02T22:27:46.652Z,25.80
2018-04-02T22:30:16.433Z,25.80
2018-04-02T22:32:46.240Z,25.80
2018-04-02T22:35:16.035Z,25.80
2018-04-02T22:37:46.593Z,25.70
2018-04-02T22:40:16.542Z,25.70
2018-04-02T22:42:48.316Z,25.70
2018-04-02T22:45:18.130Z,25.80
2018-04-02T22:47:47.901Z,25.80
2018-04-02T22:50:17.729Z,25.80
2018-04-02T22:52:47.575Z,25.80
2018-04-02T22:55:18.988Z,25.80
2018-04-02T22:57:48.854Z,25.80
2018-04-02T23:00:20.785Z,25.80
2018-04-02T23:02:50.738Z,25.80
2018-04-02T23:05:20.545Z,25.90
2018-04-02T23:07:52.014Z,25.80
2018-04-02T23:10:22.665Z,25.80
2018-04-02T23:12:52.459Z,25.70
2018-04-02T23:15:22.246Z,25.70
2018-04-02T23:17:52.079Z,25.70
2018-04-02T23:20:21.964Z,25.70
2018-04-02T23:22:55.064Z,25.70
2018-04-02T23:25:25.635Z,25.70
2018-04-02T23:27:56.217Z,25.70
2018-04-02T23:30:26.790Z,25.70
2018-04-02T23:32:56.636Z,25.70
2018-04-02T23:35:26.413Z,25.70
2018-04-02T23:37:56.159Z,25.80
2018-04-02T23:40:25.989Z,25.80
2018-04-02T23:42:56.600Z,25.80
2018-04-02T23:45:26.418Z,25.80
2018-04-02T23:47:56.234Z,25.80
2018-04-02T23:50:25.994Z,25.80
2018-04-02T23:52:55.883Z,25.80
2018-04-02T23:55:26.429Z,25.80
2018-04-02T23:57:56.542Z,25.80
